sensor_id;sensor_type;location;lat;lon;timestamp;P1;durP1;ratioP1;P2;durP2;ratioP2
67762;SDS011;54566;52.022;5.582;2022-10-17T00:01:25;10.63;;;6.13;;
67762;SDS011;54566;52.022;5.582;2022-10-17T00:03:51;11.00;;;6.10;;
67762;SDS011;54566;52.022;5.582;2022-10-17T00:06:26;12.30;;;6.40;;
67762;SDS011;54566;52.022;5.582;2022-10-17T00:08:55;7.32;;;5.85;;
67762;SDS011;54566;52.022;5.582;2022-10-17T00:11:21;13.63;;;6.47;;
67762;SDS011;54566;52.022;5.582;2022-10-17T00:14:07;15.95;;;6.30;;
67762;SDS011;54566;52.022;5.582;2022-10-17T00:16:34;11.07;;;6.40;;
67762;SDS011;54566;52.022;5.582;2022-10-17T00:19:03;12.93;;;6.57;;
67762;SDS011;54566;52.022;5.582;2022-10-17T00:21:30;9.68;;;6.50;;
67762;SDS011;54566;52.022;5.582;2022-10-17T00:23:56;10.38;;;6.05;;
67762;SDS011;54566;52.022;5.582;2022-10-17T00:26:22;12.32;;;6.93;;
67762;SDS011;54566;52.022;5.582;2022-10-17T00:28:48;12.48;;;6.60;;
67762;SDS011;54566;52.022;5.582;2022-10-17T00:31:15;13.07;;;6.97;;
67762;SDS011;54566;52.022;5.582;2022-10-17T00:33:42;13.73;;;6.85;;
67762;SDS011;54566;52.022;5.582;2022-10-17T00:36:10;9.57;;;6.50;;
67762;SDS011;54566;52.022;5.582;2022-10-17T00:38:37;19.42;;;7.05;;
67762;SDS011;54566;52.022;5.582;2022-10-17T00:41:05;10.43;;;6.78;;
67762;SDS011;54566;52.022;5.582;2022-10-17T00:46:36;14.65;;;7.18;;
67762;SDS011;54566;52.022;5.582;2022-10-17T00:49:04;14.98;;;6.88;;
67762;SDS011;54566;52.022;5.582;2022-10-17T00:54:03;11.18;;;6.70;;
67762;SDS011;54566;52.022;5.582;2022-10-17T00:56:30;16.80;;;7.43;;
67762;SDS011;54566;52.022;5.582;2022-10-17T00:58:59;13.35;;;7.22;;
67762;SDS011;54566;52.022;5.582;2022-10-17T01:01:28;15.02;;;7.38;;
67762;SDS011;54566;52.022;5.582;2022-10-17T01:03:58;8.95;;;6.50;;
67762;SDS011;54566;52.022;5.582;2022-10-17T01:06:24;12.40;;;7.00;;
67762;SDS011;54566;52.022;5.582;2022-10-17T01:08:52;12.07;;;6.55;;
67762;SDS011;54566;52.022;5.582;2022-10-17T01:11:31;11.15;;;6.13;;
67762;SDS011;54566;52.022;5.582;2022-10-17T01:16:45;17.92;;;6.60;;
67762;SDS011;54566;52.022;5.582;2022-10-17T01:24:28;14.13;;;7.13;;
67762;SDS011;54566;52.022;5.582;2022-10-17T01:32:00;10.52;;;7.32;;
67762;SDS011;54566;52.022;5.582;2022-10-17T01:37:01;14.80;;;7.63;;
67762;SDS011;54566;52.022;5.582;2022-10-17T01:39:40;16.27;;;7.30;;
67762;SDS011;54566;52.022;5.582;2022-10-17T01:44:38;11.93;;;6.70;;
67762;SDS011;54566;52.022;5.582;2022-10-17T01:47:13;11.25;;;7.15;;
67762;SDS011;54566;52.022;5.582;2022-10-17T01:49:44;10.88;;;7.50;;
67762;SDS011;54566;52.022;5.582;2022-10-17T01:52:12;13.63;;;7.35;;
67762;SDS011;54566;52.022;5.582;2022-10-17T01:54:41;10.07;;;6.47;;
67762;SDS011;54566;52.022;5.582;2022-10-17T01:57:10;9.52;;;7.57;;
67762;SDS011;54566;52.022;5.582;2022-10-17T01:59:39;9.52;;;7.43;;
67762;SDS011;54566;52.022;5.582;2022-10-17T02:02:05;17.35;;;8.27;;
67762;SDS011;54566;52.022;5.582;2022-10-17T02:04:33;10.55;;;8.00;;
67762;SDS011;54566;52.022;5.582;2022-10-17T02:07:08;14.57;;;7.93;;
67762;SDS011;54566;52.022;5.582;2022-10-17T02:09:34;11.55;;;7.60;;
67762;SDS011;54566;52.022;5.582;2022-10-17T02:17:30;12.10;;;7.55;;
67762;SDS011;54566;52.022;5.582;2022-10-17T02:28:05;16.20;;;8.35;;
67762;SDS011;54566;52.022;5.582;2022-10-17T02:33:23;14.07;;;8.30;;
67762;SDS011;54566;52.022;5.582;2022-10-17T02:35:52;13.98;;;8.90;;
67762;SDS011;54566;52.022;5.582;2022-10-17T02:38:22;14.85;;;9.25;;
67762;SDS011;54566;52.022;5.582;2022-10-17T02:40:50;11.23;;;8.52;;
67762;SDS011;54566;52.022;5.582;2022-10-17T02:43:18;13.27;;;8.53;;
67762;SDS011;54566;52.022;5.582;2022-10-17T02:45:44;12.10;;;9.25;;
67762;SDS011;54566;52.022;5.582;2022-10-17T02:48:19;16.10;;;9.82;;
67762;SDS011;54566;52.022;5.582;2022-10-17T02:53:29;16.77;;;9.00;;
67762;SDS011;54566;52.022;5.582;2022-10-17T02:55:59;16.40;;;9.60;;
67762;SDS011;54566;52.022;5.582;2022-10-17T02:58:29;18.42;;;10.07;;
67762;SDS011;54566;52.022;5.582;2022-10-17T03:01:02;16.98;;;10.02;;
67762;SDS011;54566;52.022;5.582;2022-10-17T03:03:35;15.07;;;10.30;;
67762;SDS011;54566;52.022;5.582;2022-10-17T03:06:04;13.15;;;10.10;;
67762;SDS011;54566;52.022;5.582;2022-10-17T03:08:33;16.05;;;10.63;;
67762;SDS011;54566;52.022;5.582;2022-10-17T03:11:02;16.55;;;10.73;;
67762;SDS011;54566;52.022;5.582;2022-10-17T03:13:29;14.65;;;10.82;;
67762;SDS011;54566;52.022;5.582;2022-10-17T03:15:55;17.38;;;11.52;;
67762;SDS011;54566;52.022;5.582;2022-10-17T03:18:21;14.75;;;10.38;;
67762;SDS011;54566;52.022;5.582;2022-10-17T03:20:47;18.95;;;10.38;;
67762;SDS011;54566;52.022;5.582;2022-10-17T03:23:13;14.73;;;9.45;;
67762;SDS011;54566;52.022;5.582;2022-10-17T03:25:39;12.88;;;9.95;;
67762;SDS011;54566;52.022;5.582;2022-10-17T03:28:05;16.02;;;9.73;;
67762;SDS011;54566;52.022;5.582;2022-10-17T03:30:36;14.15;;;9.52;;
67762;SDS011;54566;52.022;5.582;2022-10-17T03:33:02;18.05;;;9.80;;
67762;SDS011;54566;52.022;5.582;2022-10-17T03:35:28;18.48;;;9.73;;
67762;SDS011;54566;52.022;5.582;2022-10-17T03:37:54;15.15;;;9.35;;
67762;SDS011;54566;52.022;5.582;2022-10-17T03:40:21;17.52;;;9.32;;
67762;SDS011;54566;52.022;5.582;2022-10-17T03:42:47;16.30;;;9.43;;
67762;SDS011;54566;52.022;5.582;2022-10-17T03:45:13;15.23;;;9.20;;
67762;SDS011;54566;52.022;5.582;2022-10-17T03:47:39;17.02;;;9.68;;
67762;SDS011;54566;52.022;5.582;2022-10-17T03:50:05;14.60;;;9.15;;
67762;SDS011;54566;52.022;5.582;2022-10-17T03:52:34;13.77;;;9.25;;
67762;SDS011;54566;52.022;5.582;2022-10-17T03:55:03;14.82;;;9.18;;
67762;SDS011;54566;52.022;5.582;2022-10-17T03:57:33;16.08;;;9.60;;
67762;SDS011;54566;52.022;5.582;2022-10-17T04:00:03;16.45;;;9.60;;
67762;SDS011;54566;52.022;5.582;2022-10-17T04:02:29;13.57;;;8.82;;
67762;SDS011;54566;52.022;5.582;2022-10-17T04:05:04;19.25;;;8.93;;
67762;SDS011;54566;52.022;5.582;2022-10-17T04:07:33;16.10;;;9.10;;
67762;SDS011;54566;52.022;5.582;2022-10-17T04:10:04;17.10;;;8.98;;
67762;SDS011;54566;52.022;5.582;2022-10-17T04:12:34;13.18;;;8.50;;
67762;SDS011;54566;52.022;5.582;2022-10-17T04:14:59;12.20;;;8.35;;
67762;SDS011;54566;52.022;5.582;2022-10-17T04:17:29;14.48;;;9.13;;
67762;SDS011;54566;52.022;5.582;2022-10-17T04:19:58;12.20;;;8.38;;
67762;SDS011;54566;52.022;5.582;2022-10-17T04:22:24;15.70;;;8.95;;
67762;SDS011;54566;52.022;5.582;2022-10-17T04:24:50;13.57;;;9.07;;
67762;SDS011;54566;52.022;5.582;2022-10-17T04:27:16;13.77;;;8.38;;
67762;SDS011;54566;52.022;5.582;2022-10-17T04:29:42;12.38;;;8.52;;
67762;SDS011;54566;52.022;5.582;2022-10-17T04:32:08;20.90;;;9.48;;
67762;SDS011;54566;52.022;5.582;2022-10-17T04:34:34;15.23;;;9.00;;
67762;SDS011;54566;52.022;5.582;2022-10-17T04:37:04;15.55;;;8.80;;
67762;SDS011;54566;52.022;5.582;2022-10-17T04:39:30;18.17;;;9.30;;
67762;SDS011;54566;52.022;5.582;2022-10-17T04:41:56;13.43;;;7.97;;
67762;SDS011;54566;52.022;5.582;2022-10-17T04:44:22;16.90;;;9.48;;
67762;SDS011;54566;52.022;5.582;2022-10-17T04:46:48;16.13;;;8.70;;
67762;SDS011;54566;52.022;5.582;2022-10-17T04:49:14;15.57;;;9.23;;
67762;SDS011;54566;52.022;5.582;2022-10-17T04:51:43;12.75;;;8.93;;
67762;SDS011;54566;52.022;5.582;2022-10-17T04:54:09;16.67;;;8.95;;
67762;SDS011;54566;52.022;5.582;2022-10-17T04:56:36;20.00;;;9.13;;
67762;SDS011;54566;52.022;5.582;2022-10-17T04:59:05;19.65;;;9.07;;
67762;SDS011;54566;52.022;5.582;2022-10-17T05:01:34;13.82;;;8.82;;
67762;SDS011;54566;52.022;5.582;2022-10-17T07:39:19;16.27;;;8.25;;
67762;SDS011;54566;52.022;5.582;2022-10-17T07:41:55;16.30;;;8.20;;
67762;SDS011;54566;52.022;5.582;2022-10-17T07:44:26;12.83;;;8.90;;
67762;SDS011;54566;52.022;5.582;2022-10-17T07:46:55;12.75;;;8.38;;
67762;SDS011;54566;52.022;5.582;2022-10-17T07:49:21;15.55;;;8.90;;
67762;SDS011;54566;52.022;5.582;2022-10-17T07:51:47;12.02;;;7.95;;
67762;SDS011;54566;52.022;5.582;2022-10-17T07:54:20;19.98;;;7.55;;
67762;SDS011;54566;52.022;5.582;2022-10-17T07:56:50;16.25;;;9.07;;
67762;SDS011;54566;52.022;5.582;2022-10-17T08:02:17;18.02;;;8.77;;
67762;SDS011;54566;52.022;5.582;2022-10-17T08:04:46;17.15;;;8.07;;
67762;SDS011;54566;52.022;5.582;2022-10-17T08:07:12;18.23;;;9.05;;
67762;SDS011;54566;52.022;5.582;2022-10-17T08:15:39;25.98;;;8.68;;
67762;SDS011;54566;52.022;5.582;2022-10-17T08:18:14;20.38;;;9.10;;
67762;SDS011;54566;52.022;5.582;2022-10-17T08:20:43;18.55;;;8.75;;
67762;SDS011;54566;52.022;5.582;2022-10-17T08:23:27;22.52;;;10.05;;
67762;SDS011;54566;52.022;5.582;2022-10-17T08:26:00;20.38;;;8.73;;
67762;SDS011;54566;52.022;5.582;2022-10-17T08:34:24;22.52;;;10.70;;
67762;SDS011;54566;52.022;5.582;2022-10-17T08:37:01;18.67;;;8.83;;
67762;SDS011;54566;52.022;5.582;2022-10-17T08:54:57;24.80;;;10.32;;
67762;SDS011;54566;52.022;5.582;2022-10-17T09:03:37;22.08;;;9.50;;
67762;SDS011;54566;52.022;5.582;2022-10-17T09:15:07;14.35;;;8.85;;
67762;SDS011;54566;52.022;5.582;2022-10-17T09:20:15;17.95;;;8.98;;
67762;SDS011;54566;52.022;5.582;2022-10-17T09:23:04;12.98;;;7.82;;
67762;SDS011;54566;52.022;5.582;2022-10-17T09:25:30;17.10;;;8.20;;
67762;SDS011;54566;52.022;5.582;2022-10-17T09:28:05;15.10;;;7.65;;
67762;SDS011;54566;52.022;5.582;2022-10-17T09:33:40;17.25;;;8.05;;
67762;SDS011;54566;52.022;5.582;2022-10-17T09:36:20;26.27;;;9.02;;
67762;SDS011;54566;52.022;5.582;2022-10-17T09:49:13;22.23;;;9.05;;
67762;SDS011;54566;52.022;5.582;2022-10-17T09:51:20;15.30;;;8.52;;
67762;SDS011;54566;52.022;5.582;2022-10-17T09:53:59;21.27;;;9.23;;
67762;SDS011;54566;52.022;5.582;2022-10-17T09:56:32;22.73;;;8.82;;
67762;SDS011;54566;52.022;5.582;2022-10-17T09:59:36;11.75;;;9.00;;
67762;SDS011;54566;52.022;5.582;2022-10-17T10:05:36;13.85;;;8.60;;
67762;SDS011;54566;52.022;5.582;2022-10-17T10:11:12;13.57;;;7.93;;
67762;SDS011;54566;52.022;5.582;2022-10-17T10:13:42;15.75;;;7.82;;
67762;SDS011;54566;52.022;5.582;2022-10-17T10:19:12;11.07;;;7.93;;
67762;SDS011;54566;52.022;5.582;2022-10-17T10:21:54;11.48;;;6.75;;
67762;SDS011;54566;52.022;5.582;2022-10-17T10:24:21;13.48;;;7.32;;
67762;SDS011;54566;52.022;5.582;2022-10-17T10:26:49;16.00;;;7.47;;
67762;SDS011;54566;52.022;5.582;2022-10-17T10:31:45;12.57;;;7.00;;
67762;SDS011;54566;52.022;5.582;2022-10-17T10:34:17;17.48;;;7.82;;
67762;SDS011;54566;52.022;5.582;2022-10-17T10:36:59;10.63;;;7.53;;
67762;SDS011;54566;52.022;5.582;2022-10-17T10:39:32;13.48;;;8.00;;
67762;SDS011;54566;52.022;5.582;2022-10-17T10:42:00;12.52;;;7.47;;
67762;SDS011;54566;52.022;5.582;2022-10-17T10:44:27;14.05;;;7.40;;
67762;SDS011;54566;52.022;5.582;2022-10-17T10:49:43;10.63;;;6.05;;
67762;SDS011;54566;52.022;5.582;2022-10-17T10:52:17;13.18;;;7.22;;
67762;SDS011;54566;52.022;5.582;2022-10-17T10:54:53;13.32;;;6.32;;
67762;SDS011;54566;52.022;5.582;2022-10-17T10:57:31;17.38;;;6.80;;
67762;SDS011;54566;52.022;5.582;2022-10-17T11:02:58;12.35;;;6.82;;
67762;SDS011;54566;52.022;5.582;2022-10-17T11:10:58;12.27;;;6.68;;
67762;SDS011;54566;52.022;5.582;2022-10-17T11:13:31;14.60;;;6.10;;
67762;SDS011;54566;52.022;5.582;2022-10-17T11:16:01;8.85;;;5.85;;
67762;SDS011;54566;52.022;5.582;2022-10-17T11:18:34;9.85;;;6.05;;
67762;SDS011;54566;52.022;5.582;2022-10-17T11:21:09;10.27;;;6.13;;
67762;SDS011;54566;52.022;5.582;2022-10-17T11:24:02;9.88;;;6.68;;
67762;SDS011;54566;52.022;5.582;2022-10-17T11:26:34;8.80;;;6.28;;
67762;SDS011;54566;52.022;5.582;2022-10-17T11:29:12;10.70;;;6.28;;
67762;SDS011;54566;52.022;5.582;2022-10-17T11:31:49;10.20;;;6.50;;
67762;SDS011;54566;52.022;5.582;2022-10-17T11:34:24;7.70;;;5.80;;
67762;SDS011;54566;52.022;5.582;2022-10-17T11:37:01;11.20;;;6.37;;
67762;SDS011;54566;52.022;5.582;2022-10-17T11:42:37;16.83;;;5.85;;
67762;SDS011;54566;52.022;5.582;2022-10-17T11:45:13;9.75;;;5.82;;
67762;SDS011;54566;52.022;5.582;2022-10-17T11:51:03;9.13;;;5.45;;
67762;SDS011;54566;52.022;5.582;2022-10-17T12:01:52;9.75;;;5.10;;
67762;SDS011;54566;52.022;5.582;2022-10-17T12:04:55;9.90;;;5.57;;
67762;SDS011;54566;52.022;5.582;2022-10-17T12:18:50;11.88;;;5.97;;
67762;SDS011;54566;52.022;5.582;2022-10-17T12:24:36;8.80;;;5.75;;
67762;SDS011;54566;52.022;5.582;2022-10-17T12:33:10;8.68;;;6.25;;
67762;SDS011;54566;52.022;5.582;2022-10-17T12:38:50;11.65;;;6.68;;
67762;SDS011;54566;52.022;5.582;2022-10-17T12:42:02;13.70;;;6.20;;
67762;SDS011;54566;52.022;5.582;2022-10-17T12:49:57;9.65;;;6.10;;
67762;SDS011;54566;52.022;5.582;2022-10-17T13:00:31;10.60;;;6.88;;
67762;SDS011;54566;52.022;5.582;2022-10-17T13:03:04;12.52;;;6.75;;
67762;SDS011;54566;52.022;5.582;2022-10-17T13:05:45;10.23;;;7.53;;
67762;SDS011;54566;52.022;5.582;2022-10-17T13:08:19;11.02;;;7.97;;
67762;SDS011;54566;52.022;5.582;2022-10-17T13:10:57;9.02;;;7.00;;
67762;SDS011;54566;52.022;5.582;2022-10-17T13:13:45;9.82;;;7.20;;
67762;SDS011;54566;52.022;5.582;2022-10-17T13:19:26;13.25;;;7.80;;
67762;SDS011;54566;52.022;5.582;2022-10-17T13:27:35;10.30;;;7.30;;
67762;SDS011;54566;52.022;5.582;2022-10-17T13:30:34;12.55;;;7.80;;
67762;SDS011;54566;52.022;5.582;2022-10-17T13:47:50;12.20;;;9.07;;
67762;SDS011;54566;52.022;5.582;2022-10-17T13:50:34;15.88;;;9.18;;
67762;SDS011;54566;52.022;5.582;2022-10-17T13:55:48;9.23;;;7.68;;
67762;SDS011;54566;52.022;5.582;2022-10-17T13:58:23;13.50;;;8.27;;
67762;SDS011;54566;52.022;5.582;2022-10-17T14:03:56;15.02;;;8.73;;
67762;SDS011;54566;52.022;5.582;2022-10-17T14:09:38;17.20;;;8.27;;
67762;SDS011;54566;52.022;5.582;2022-10-17T14:12:21;16.98;;;7.85;;
67762;SDS011;54566;52.022;5.582;2022-10-17T14:23:35;8.75;;;6.07;;
67762;SDS011;54566;52.022;5.582;2022-10-17T14:26:03;14.40;;;6.35;;
67762;SDS011;54566;52.022;5.582;2022-10-17T14:28:32;10.23;;;5.53;;
67762;SDS011;54566;52.022;5.582;2022-10-17T14:34:22;9.63;;;6.38;;
67762;SDS011;54566;52.022;5.582;2022-10-17T14:43:13;9.60;;;5.38;;
67762;SDS011;54566;52.022;5.582;2022-10-17T14:46:13;8.60;;;6.05;;
67762;SDS011;54566;52.022;5.582;2022-10-17T14:57:57;8.73;;;6.72;;
67762;SDS011;54566;52.022;5.582;2022-10-17T15:00:23;18.38;;;7.25;;
67762;SDS011;54566;52.022;5.582;2022-10-17T15:15:43;7.22;;;5.00;;
67762;SDS011;54566;52.022;5.582;2022-10-17T15:21:39;9.40;;;6.05;;
67762;SDS011;54566;52.022;5.582;2022-10-17T15:29:51;10.23;;;6.60;;
67762;SDS011;54566;52.022;5.582;2022-10-17T15:32:24;9.30;;;5.93;;
67762;SDS011;54566;52.022;5.582;2022-10-17T15:41:04;10.40;;;6.35;;
67762;SDS011;54566;52.022;5.582;2022-10-17T15:43:47;12.75;;;6.65;;
67762;SDS011;54566;52.022;5.582;2022-10-17T15:49:23;8.48;;;5.97;;
67762;SDS011;54566;52.022;5.582;2022-10-17T15:54:58;8.45;;;5.80;;
67762;SDS011;54566;52.022;5.582;2022-10-17T17:42:02;21.52;;;13.25;;
67762;SDS011;54566;52.022;5.582;2022-10-17T17:44:28;18.67;;;13.47;;
67762;SDS011;54566;52.022;5.582;2022-10-17T17:46:57;25.15;;;13.60;;
67762;SDS011;54566;52.022;5.582;2022-10-17T17:49:27;27.92;;;17.25;;
67762;SDS011;54566;52.022;5.582;2022-10-17T17:51:56;21.60;;;15.38;;
67762;SDS011;54566;52.022;5.582;2022-10-17T18:00:04;21.65;;;14.20;;
67762;SDS011;54566;52.022;5.582;2022-10-17T18:08:16;20.60;;;14.93;;
67762;SDS011;54566;52.022;5.582;2022-10-17T18:10:50;31.90;;;15.45;;
67762;SDS011;54566;52.022;5.582;2022-10-17T18:16:27;22.42;;;15.85;;
67762;SDS011;54566;52.022;5.582;2022-10-17T18:18:57;30.88;;;17.08;;
67762;SDS011;54566;52.022;5.582;2022-10-17T18:30:10;26.83;;;17.88;;
67762;SDS011;54566;52.022;5.582;2022-10-17T18:35:41;28.30;;;18.13;;
67762;SDS011;54566;52.022;5.582;2022-10-17T18:41:04;27.77;;;16.80;;
67762;SDS011;54566;52.022;5.582;2022-10-17T18:43:34;29.25;;;17.55;;
67762;SDS011;54566;52.022;5.582;2022-10-17T18:49:21;29.27;;;18.52;;
67762;SDS011;54566;52.022;5.582;2022-10-17T18:54:53;25.80;;;18.58;;
67762;SDS011;54566;52.022;5.582;2022-10-17T18:57:36;29.55;;;18.73;;
67762;SDS011;54566;52.022;5.582;2022-10-17T19:02:58;30.60;;;18.58;;
67762;SDS011;54566;52.022;5.582;2022-10-17T19:08:36;27.92;;;16.98;;
67762;SDS011;54566;52.022;5.582;2022-10-17T19:11:12;24.58;;;18.42;;
67762;SDS011;54566;52.022;5.582;2022-10-17T19:13:45;30.52;;;17.35;;
67762;SDS011;54566;52.022;5.582;2022-10-17T19:19:13;30.27;;;18.52;;
67762;SDS011;54566;52.022;5.582;2022-10-17T19:25:00;30.60;;;19.02;;
67762;SDS011;54566;52.022;5.582;2022-10-17T19:27:44;28.60;;;18.05;;
67762;SDS011;54566;52.022;5.582;2022-10-17T19:30:13;32.60;;;18.23;;
67762;SDS011;54566;52.022;5.582;2022-10-17T19:35:18;28.35;;;17.65;;
67762;SDS011;54566;52.022;5.582;2022-10-17T19:37:51;28.98;;;17.75;;
67762;SDS011;54566;52.022;5.582;2022-10-17T19:40:30;29.83;;;18.30;;
67762;SDS011;54566;52.022;5.582;2022-10-17T19:42:59;28.05;;;18.45;;
67762;SDS011;54566;52.022;5.582;2022-10-17T19:45:34;31.60;;;18.38;;
67762;SDS011;54566;52.022;5.582;2022-10-17T19:48:00;33.20;;;17.88;;
67762;SDS011;54566;52.022;5.582;2022-10-17T19:50:46;35.03;;;18.50;;
67762;SDS011;54566;52.022;5.582;2022-10-17T19:56:28;28.52;;;18.58;;
67762;SDS011;54566;52.022;5.582;2022-10-17T19:59:06;26.48;;;16.98;;
67762;SDS011;54566;52.022;5.582;2022-10-17T20:01:36;34.40;;;17.77;;
67762;SDS011;54566;52.022;5.582;2022-10-17T20:04:06;30.60;;;17.25;;
67762;SDS011;54566;52.022;5.582;2022-10-17T20:12:54;25.27;;;17.02;;
67762;SDS011;54566;52.022;5.582;2022-10-17T20:15:34;31.85;;;19.15;;
67762;SDS011;54566;52.022;5.582;2022-10-17T20:21:08;30.85;;;18.45;;
67762;SDS011;54566;52.022;5.582;2022-10-17T20:23:38;29.83;;;16.95;;
67762;SDS011;54566;52.022;5.582;2022-10-17T20:26:05;31.30;;;17.33;;
67762;SDS011;54566;52.022;5.582;2022-10-17T20:31:35;30.02;;;16.90;;
67762;SDS011;54566;52.022;5.582;2022-10-17T20:34:02;28.65;;;17.90;;
67762;SDS011;54566;52.022;5.582;2022-10-17T20:36:45;23.10;;;16.55;;
67762;SDS011;54566;52.022;5.582;2022-10-17T20:39:17;30.25;;;17.30;;
67762;SDS011;54566;52.022;5.582;2022-10-17T20:41:51;36.00;;;19.13;;
67762;SDS011;54566;52.022;5.582;2022-10-17T20:44:22;35.47;;;19.05;;
67762;SDS011;54566;52.022;5.582;2022-10-17T20:56:08;40.20;;;18.75;;
67762;SDS011;54566;52.022;5.582;2022-10-17T20:58:39;34.72;;;18.15;;
67762;SDS011;54566;52.022;5.582;2022-10-17T21:03:56;28.47;;;17.60;;
67762;SDS011;54566;52.022;5.582;2022-10-17T21:06:56;31.58;;;16.70;;
67762;SDS011;54566;52.022;5.582;2022-10-17T21:09:28;29.98;;;16.92;;
67762;SDS011;54566;52.022;5.582;2022-10-17T21:12:05;30.95;;;18.30;;
67762;SDS011;54566;52.022;5.582;2022-10-17T21:14:35;34.67;;;18.05;;
67762;SDS011;54566;52.022;5.582;2022-10-17T21:17:05;24.67;;;16.50;;
67762;SDS011;54566;52.022;5.582;2022-10-17T21:22:39;29.80;;;17.45;;
67762;SDS011;54566;52.022;5.582;2022-10-17T21:25:06;31.83;;;16.63;;
67762;SDS011;54566;52.022;5.582;2022-10-17T21:30:48;29.15;;;15.70;;
67762;SDS011;54566;52.022;5.582;2022-10-17T21:33:19;26.80;;;16.73;;
67762;SDS011;54566;52.022;5.582;2022-10-17T21:35:55;30.75;;;17.77;;
67762;SDS011;54566;52.022;5.582;2022-10-17T21:43:59;32.28;;;16.10;;
67762;SDS011;54566;52.022;5.582;2022-10-17T21:49:33;24.33;;;16.27;;
67762;SDS011;54566;52.022;5.582;2022-10-17T21:54:52;22.98;;;16.40;;
67762;SDS011;54566;52.022;5.582;2022-10-17T21:57:18;32.13;;;16.52;;
67762;SDS011;54566;52.022;5.582;2022-10-17T21:59:59;25.00;;;14.18;;
67762;SDS011;54566;52.022;5.582;2022-10-17T22:02:42;32.30;;;16.48;;
67762;SDS011;54566;52.022;5.582;2022-10-17T22:08:12;26.65;;;14.73;;
67762;SDS011;54566;52.022;5.582;2022-10-17T22:10:38;27.83;;;14.80;;
67762;SDS011;54566;52.022;5.582;2022-10-17T22:13:20;33.88;;;14.73;;
67762;SDS011;54566;52.022;5.582;2022-10-17T22:15:51;22.27;;;15.52;;
67762;SDS011;54566;52.022;5.582;2022-10-17T22:18:22;21.83;;;15.30;;
67762;SDS011;54566;52.022;5.582;2022-10-17T22:20:50;25.70;;;15.77;;
67762;SDS011;54566;52.022;5.582;2022-10-17T22:23:16;33.25;;;16.55;;
67762;SDS011;54566;52.022;5.582;2022-10-17T22:26:00;24.80;;;14.95;;
67762;SDS011;54566;52.022;5.582;2022-10-17T22:28:27;22.75;;;14.43;;
67762;SDS011;54566;52.022;5.582;2022-10-17T22:31:01;30.75;;;17.40;;
67762;SDS011;54566;52.022;5.582;2022-10-17T22:33:31;21.85;;;14.00;;
67762;SDS011;54566;52.022;5.582;2022-10-17T22:36:12;27.05;;;16.17;;
67762;SDS011;54566;52.022;5.582;2022-10-17T22:38:38;27.45;;;16.10;;
67762;SDS011;54566;52.022;5.582;2022-10-17T22:41:08;25.33;;;14.13;;
67762;SDS011;54566;52.022;5.582;2022-10-17T22:43:37;29.52;;;14.65;;
67762;SDS011;54566;52.022;5.582;2022-10-17T22:48:56;27.38;;;15.45;;
67762;SDS011;54566;52.022;5.582;2022-10-17T23:02:27;25.27;;;14.35;;
67762;SDS011;54566;52.022;5.582;2022-10-17T23:04:56;29.50;;;15.48;;
67762;SDS011;54566;52.022;5.582;2022-10-17T23:07:22;30.58;;;15.38;;
67762;SDS011;54566;52.022;5.582;2022-10-17T23:09:49;26.50;;;16.05;;
67762;SDS011;54566;52.022;5.582;2022-10-17T23:12:15;24.33;;;15.20;;
67762;SDS011;54566;52.022;5.582;2022-10-17T23:14:41;32.00;;;16.65;;
67762;SDS011;54566;52.022;5.582;2022-10-17T23:17:20;33.42;;;15.88;;
67762;SDS011;54566;52.022;5.582;2022-10-17T23:19:46;36.50;;;16.67;;
67762;SDS011;54566;52.022;5.582;2022-10-17T23:22:12;39.50;;;16.80;;
67762;SDS011;54566;52.022;5.582;2022-10-17T23:24:38;33.70;;;15.82;;
67762;SDS011;54566;52.022;5.582;2022-10-17T23:27:04;31.63;;;15.82;;
67762;SDS011;54566;52.022;5.582;2022-10-17T23:29:33;151.50;;;17.80;;
67762;SDS011;54566;52.022;5.582;2022-10-17T23:32:09;52.15;;;15.02;;
67762;SDS011;54566;52.022;5.582;2022-10-17T23:34:38;44.53;;;14.45;;
67762;SDS011;54566;52.022;5.582;2022-10-17T23:37:10;141.10;;;14.40;;
67762;SDS011;54566;52.022;5.582;2022-10-17T23:39:39;69.05;;;13.52;;
67762;SDS011;54566;52.022;5.582;2022-10-17T23:42:08;164.57;;;13.07;;
67762;SDS011;54566;52.022;5.582;2022-10-17T23:44:34;153.55;;;12.60;;
67762;SDS011;54566;52.022;5.582;2022-10-17T23:47:00;105.10;;;11.00;;
67762;SDS011;54566;52.022;5.582;2022-10-17T23:49:26;97.45;;;11.20;;
67762;SDS011;54566;52.022;5.582;2022-10-17T23:51:52;111.45;;;11.05;;
67762;SDS011;54566;52.022;5.582;2022-10-17T23:54:18;179.25;;;13.68;;
67762;SDS011;54566;52.022;5.582;2022-10-17T23:56:44;238.73;;;13.80;;
67762;SDS011;54566;52.022;5.582;2022-10-17T23:59:10;208.98;;;14.23;;
